sensor_id;sensor_type;location;lat;lon;timestamp;temperature;humidity
21090;DHT22;10703;51.020;6.128;2023-04-24T00:02:18;9.20;99.90
21090;DHT22;10703;51.020;6.128;2023-04-24T00:04:45;9.20;99.90
21090;DHT22;10703;51.020;6.128;2023-04-24T00:07:12;9.20;99.90
21090;DHT22;10703;51.020;6.128;2023-04-24T00:09:39;9.30;99.90
21090;DHT22;10703;51.020;6.128;2023-04-24T00:12:06;9.40;99.90
21090;DHT22;10703;51.020;6.128;2023-04-24T00:14:33;9.50;99.90
21090;DHT22;10703;51.020;6.128;2023-04-24T00:17:01;9.60;99.90
21090;DHT22;10703;51.020;6.128;2023-04-24T00:19:29;9.50;99.90
21090;DHT22;10703;51.020;6.128;2023-04-24T00:21:55;9.50;99.90
21090;DHT22;10703;51.020;6.128;2023-04-24T00:24:22;9.40;99.90
21090;DHT22;10703;51.020;6.128;2023-04-24T00:26:48;9.40;99.90
21090;DHT22;10703;51.020;6.128;2023-04-24T00:29:15;9.40;99.90
21090;DHT22;10703;51.020;6.128;2023-04-24T00:31:41;9.30;99.90
21090;DHT22;10703;51.020;6.128;2023-04-24T00:34:08;9.30;99.90
21090;DHT22;10703;51.020;6.128;2023-04-24T00:36:34;9.30;99.90
21090;DHT22;10703;51.020;6.128;2023-04-24T00:39:01;9.30;99.90
21090;DHT22;10703;51.020;6.128;2023-04-24T00:41:28;9.20;99.90
21090;DHT22;10703;51.020;6.128;2023-04-24T00:43:55;9.30;99.90
21090;DHT22;10703;51.020;6.128;2023-04-24T00:46:22;9.20;99.90
21090;DHT22;10703;51.020;6.128;2023-04-24T00:48:49;9.20;99.90
21090;DHT22;10703;51.020;6.128;2023-04-24T00:51:16;9.20;99.90
21090;DHT22;10703;51.020;6.128;2023-04-24T00:53:43;9.20;99.90
21090;DHT22;10703;51.020;6.128;2023-04-24T00:56:10;9.20;99.90
21090;DHT22;10703;51.020;6.128;2023-04-24T00:58:37;9.20;99.90
21090;DHT22;10703;51.020;6.128;2023-04-24T01:01:03;9.20;99.90
21090;DHT22;10703;51.020;6.128;2023-04-24T01:03:33;9.30;99.90
21090;DHT22;10703;51.020;6.128;2023-04-24T01:06:01;9.20;99.90
21090;DHT22;10703;51.020;6.128;2023-04-24T01:08:28;9.20;99.90
21090;DHT22;10703;51.020;6.128;2023-04-24T01:10:55;9.20;99.90
21090;DHT22;10703;51.020;6.128;2023-04-24T01:13:23;9.30;99.90
21090;DHT22;10703;51.020;6.128;2023-04-24T01:15:49;9.20;99.90
21090;DHT22;10703;51.020;6.128;2023-04-24T01:18:16;9.20;99.90
21090;DHT22;10703;51.020;6.128;2023-04-24T01:20:44;9.20;99.90
21090;DHT22;10703;51.020;6.128;2023-04-24T01:23:13;9.10;99.90
21090;DHT22;10703;51.020;6.128;2023-04-24T01:25:40;9.20;99.90
21090;DHT22;10703;51.020;6.128;2023-04-24T01:28:07;9.20;99.90
21090;DHT22;10703;51.020;6.128;2023-04-24T01:30:33;9.20;99.90
21090;DHT22;10703;51.020;6.128;2023-04-24T01:33:00;9.20;99.90
21090;DHT22;10703;51.020;6.128;2023-04-24T01:35:27;9.20;99.90
21090;DHT22;10703;51.020;6.128;2023-04-24T01:37:54;9.20;99.90
21090;DHT22;10703;51.020;6.128;2023-04-24T01:40:21;9.30;99.90
21090;DHT22;10703;51.020;6.128;2023-04-24T01:42:47;9.30;99.90
21090;DHT22;10703;51.020;6.128;2023-04-24T01:45:14;9.20;99.90
21090;DHT22;10703;51.020;6.128;2023-04-24T01:47:41;9.30;99.90
21090;DHT22;10703;51.020;6.128;2023-04-24T01:50:08;9.20;99.90
21090;DHT22;10703;51.020;6.128;2023-04-24T01:52:35;9.30;99.90
21090;DHT22;10703;51.020;6.128;2023-04-24T01:55:06;9.40;99.90
21090;DHT22;10703;51.020;6.128;2023-04-24T01:57:33;9.40;99.90
21090;DHT22;10703;51.020;6.128;2023-04-24T02:00:00;9.30;99.90
21090;DHT22;10703;51.020;6.128;2023-04-24T02:02:26;9.30;99.90
21090;DHT22;10703;51.020;6.128;2023-04-24T02:04:54;9.40;99.90
21090;DHT22;10703;51.020;6.128;2023-04-24T02:07:21;9.40;99.90
21090;DHT22;10703;51.020;6.128;2023-04-24T02:09:48;9.40;99.90
21090;DHT22;10703;51.020;6.128;2023-04-24T02:12:15;9.30;99.90
21090;DHT22;10703;51.020;6.128;2023-04-24T02:14:43;9.30;99.90
21090;DHT22;10703;51.020;6.128;2023-04-24T02:17:10;9.40;99.90
21090;DHT22;10703;51.020;6.128;2023-04-24T02:19:39;9.40;99.90
21090;DHT22;10703;51.020;6.128;2023-04-24T02:22:06;9.40;99.90
21090;DHT22;10703;51.020;6.128;2023-04-24T02:24:32;9.40;99.90
21090;DHT22;10703;51.020;6.128;2023-04-24T02:26:59;9.50;99.90
21090;DHT22;10703;51.020;6.128;2023-04-24T02:29:26;9.40;99.90
21090;DHT22;10703;51.020;6.128;2023-04-24T02:31:53;9.40;99.90
21090;DHT22;10703;51.020;6.128;2023-04-24T02:34:19;9.40;99.90
21090;DHT22;10703;51.020;6.128;2023-04-24T02:36:46;9.40;99.90
21090;DHT22;10703;51.020;6.128;2023-04-24T02:39:12;9.40;99.90
21090;DHT22;10703;51.020;6.128;2023-04-24T02:41:39;9.40;99.90
21090;DHT22;10703;51.020;6.128;2023-04-24T02:44:06;9.40;99.90
21090;DHT22;10703;51.020;6.128;2023-04-24T02:46:33;9.40;99.90
21090;DHT22;10703;51.020;6.128;2023-04-24T02:48:59;9.40;99.90
21090;DHT22;10703;51.020;6.128;2023-04-24T02:51:26;9.40;99.90
21090;DHT22;10703;51.020;6.128;2023-04-24T02:53:53;9.40;99.90
21090;DHT22;10703;51.020;6.128;2023-04-24T02:56:19;9.40;99.90
21090;DHT22;10703;51.020;6.128;2023-04-24T02:58:46;9.40;99.90
21090;DHT22;10703;51.020;6.128;2023-04-24T03:01:12;9.30;99.90
21090;DHT22;10703;51.020;6.128;2023-04-24T03:03:39;9.30;99.90
21090;DHT22;10703;51.020;6.128;2023-04-24T03:06:06;9.40;99.90
21090;DHT22;10703;51.020;6.128;2023-04-24T03:08:34;9.40;99.90
21090;DHT22;10703;51.020;6.128;2023-04-24T03:11:01;9.30;99.90
21090;DHT22;10703;51.020;6.128;2023-04-24T03:13:28;9.30;99.90
21090;DHT22;10703;51.020;6.128;2023-04-24T03:15:54;9.30;99.90
21090;DHT22;10703;51.020;6.128;2023-04-24T03:18:21;9.40;99.90
21090;DHT22;10703;51.020;6.128;2023-04-24T03:20:48;9.30;99.90
21090;DHT22;10703;51.020;6.128;2023-04-24T03:23:14;9.30;99.90
21090;DHT22;10703;51.020;6.128;2023-04-24T03:25:41;9.30;99.90
21090;DHT22;10703;51.020;6.128;2023-04-24T03:28:09;9.30;99.90
21090;DHT22;10703;51.020;6.128;2023-04-24T03:30:35;9.20;99.90
21090;DHT22;10703;51.020;6.128;2023-04-24T03:33:02;9.10;99.90
21090;DHT22;10703;51.020;6.128;2023-04-24T03:35:29;9.20;99.90
21090;DHT22;10703;51.020;6.128;2023-04-24T03:37:55;9.10;99.90
21090;DHT22;10703;51.020;6.128;2023-04-24T03:40:22;9.20;99.90
21090;DHT22;10703;51.020;6.128;2023-04-24T03:42:48;9.20;99.90
21090;DHT22;10703;51.020;6.128;2023-04-24T03:45:15;9.10;99.90
21090;DHT22;10703;51.020;6.128;2023-04-24T03:47:41;9.10;99.90
21090;DHT22;10703;51.020;6.128;2023-04-24T03:50:08;8.90;99.90
21090;DHT22;10703;51.020;6.128;2023-04-24T03:52:38;8.80;99.90
21090;DHT22;10703;51.020;6.128;2023-04-24T03:55:05;8.70;99.90
21090;DHT22;10703;51.020;6.128;2023-04-24T03:57:32;8.60;99.90
21090;DHT22;10703;51.020;6.128;2023-04-24T03:59:59;8.60;99.90
21090;DHT22;10703;51.020;6.128;2023-04-24T04:02:26;8.60;99.90
21090;DHT22;10703;51.020;6.128;2023-04-24T04:04:53;8.60;99.90
21090;DHT22;10703;51.020;6.128;2023-04-24T04:07:19;8.70;99.90
21090;DHT22;10703;51.020;6.128;2023-04-24T04:09:46;8.70;99.90
21090;DHT22;10703;51.020;6.128;2023-04-24T04:12:12;8.70;99.90
21090;DHT22;10703;51.020;6.128;2023-04-24T04:14:39;8.70;99.90
21090;DHT22;10703;51.020;6.128;2023-04-24T04:17:06;8.60;99.90
21090;DHT22;10703;51.020;6.128;2023-04-24T04:19:32;8.70;99.90
21090;DHT22;10703;51.020;6.128;2023-04-24T04:21:59;8.70;99.90
21090;DHT22;10703;51.020;6.128;2023-04-24T04:24:25;8.70;99.90
21090;DHT22;10703;51.020;6.128;2023-04-24T04:26:52;8.70;99.90
21090;DHT22;10703;51.020;6.128;2023-04-24T04:29:22;8.70;99.90
21090;DHT22;10703;51.020;6.128;2023-04-24T04:31:50;8.70;99.90
21090;DHT22;10703;51.020;6.128;2023-04-24T04:34:17;8.70;99.90
21090;DHT22;10703;51.020;6.128;2023-04-24T04:36:43;8.60;99.90
21090;DHT22;10703;51.020;6.128;2023-04-24T04:39:10;8.40;99.90
21090;DHT22;10703;51.020;6.128;2023-04-24T04:41:37;8.40;99.90
21090;DHT22;10703;51.020;6.128;2023-04-24T04:44:04;8.40;99.90
21090;DHT22;10703;51.020;6.128;2023-04-24T04:46:31;8.50;99.90
21090;DHT22;10703;51.020;6.128;2023-04-24T04:49:00;8.50;99.90
21090;DHT22;10703;51.020;6.128;2023-04-24T04:51:27;8.50;99.90
21090;DHT22;10703;51.020;6.128;2023-04-24T04:53:54;8.50;99.90
21090;DHT22;10703;51.020;6.128;2023-04-24T04:56:21;8.50;99.90
21090;DHT22;10703;51.020;6.128;2023-04-24T04:58:48;8.50;99.90
21090;DHT22;10703;51.020;6.128;2023-04-24T05:01:14;8.50;99.90
21090;DHT22;10703;51.020;6.128;2023-04-24T05:03:41;8.50;99.90
21090;DHT22;10703;51.020;6.128;2023-04-24T05:06:08;8.50;99.90
21090;DHT22;10703;51.020;6.128;2023-04-24T05:08:34;8.50;99.90
21090;DHT22;10703;51.020;6.128;2023-04-24T05:11:01;8.50;99.90
21090;DHT22;10703;51.020;6.128;2023-04-24T05:13:28;8.50;99.90
21090;DHT22;10703;51.020;6.128;2023-04-24T05:16:05;8.50;99.90
21090;DHT22;10703;51.020;6.128;2023-04-24T05:18:32;8.50;99.90
21090;DHT22;10703;51.020;6.128;2023-04-24T05:20:58;8.60;99.90
21090;DHT22;10703;51.020;6.128;2023-04-24T05:23:25;8.60;99.90
21090;DHT22;10703;51.020;6.128;2023-04-24T05:25:52;8.50;99.90
21090;DHT22;10703;51.020;6.128;2023-04-24T05:28:18;8.50;99.90
21090;DHT22;10703;51.020;6.128;2023-04-24T05:30:45;8.30;99.90
21090;DHT22;10703;51.020;6.128;2023-04-24T05:33:11;8.10;99.90
21090;DHT22;10703;51.020;6.128;2023-04-24T05:35:40;8.00;99.90
21090;DHT22;10703;51.020;6.128;2023-04-24T05:38:12;7.90;99.90
21090;DHT22;10703;51.020;6.128;2023-04-24T05:40:39;7.90;99.90
21090;DHT22;10703;51.020;6.128;2023-04-24T05:43:06;7.90;99.90
21090;DHT22;10703;51.020;6.128;2023-04-24T05:45:32;7.90;99.90
21090;DHT22;10703;51.020;6.128;2023-04-24T05:47:59;7.90;99.90
21090;DHT22;10703;51.020;6.128;2023-04-24T05:50:26;8.00;99.90
21090;DHT22;10703;51.020;6.128;2023-04-24T05:52:52;8.00;99.90
21090;DHT22;10703;51.020;6.128;2023-04-24T05:55:20;7.90;99.90
21090;DHT22;10703;51.020;6.128;2023-04-24T05:57:46;8.00;99.90
21090;DHT22;10703;51.020;6.128;2023-04-24T06:00:13;8.00;99.90
21090;DHT22;10703;51.020;6.128;2023-04-24T06:02:40;8.00;99.90
21090;DHT22;10703;51.020;6.128;2023-04-24T06:05:07;8.00;99.90
21090;DHT22;10703;51.020;6.128;2023-04-24T06:07:34;8.10;99.90
21090;DHT22;10703;51.020;6.128;2023-04-24T06:10:01;8.10;99.90
21090;DHT22;10703;51.020;6.128;2023-04-24T06:12:28;8.10;99.90
21090;DHT22;10703;51.020;6.128;2023-04-24T06:14:55;8.10;99.90
21090;DHT22;10703;51.020;6.128;2023-04-24T06:17:24;8.10;99.90
21090;DHT22;10703;51.020;6.128;2023-04-24T06:19:51;8.00;99.90
21090;DHT22;10703;51.020;6.128;2023-04-24T06:22:17;8.00;99.90
21090;DHT22;10703;51.020;6.128;2023-04-24T06:24:44;8.00;99.90
21090;DHT22;10703;51.020;6.128;2023-04-24T06:27:10;7.90;99.90
21090;DHT22;10703;51.020;6.128;2023-04-24T06:29:39;8.00;99.90
21090;DHT22;10703;51.020;6.128;2023-04-24T06:32:06;7.90;99.90
21090;DHT22;10703;51.020;6.128;2023-04-24T06:34:32;7.80;99.90
21090;DHT22;10703;51.020;6.128;2023-04-24T06:37:00;7.80;99.90
21090;DHT22;10703;51.020;6.128;2023-04-24T06:39:27;7.80;99.90
21090;DHT22;10703;51.020;6.128;2023-04-24T06:41:53;7.80;99.90
21090;DHT22;10703;51.020;6.128;2023-04-24T06:44:20;7.80;99.90
21090;DHT22;10703;51.020;6.128;2023-04-24T06:46:46;7.80;99.90
21090;DHT22;10703;51.020;6.128;2023-04-24T06:49:13;7.80;99.90
21090;DHT22;10703;51.020;6.128;2023-04-24T06:51:42;7.80;99.90
21090;DHT22;10703;51.020;6.128;2023-04-24T06:54:09;7.80;99.90
21090;DHT22;10703;51.020;6.128;2023-04-24T06:56:35;7.80;99.90
21090;DHT22;10703;51.020;6.128;2023-04-24T06:59:02;7.80;99.90
21090;DHT22;10703;51.020;6.128;2023-04-24T07:01:28;7.80;99.90
21090;DHT22;10703;51.020;6.128;2023-04-24T07:03:55;7.70;99.90
21090;DHT22;10703;51.020;6.128;2023-04-24T07:06:22;7.70;99.90
21090;DHT22;10703;51.020;6.128;2023-04-24T07:08:50;7.70;99.90
21090;DHT22;10703;51.020;6.128;2023-04-24T07:11:16;7.70;99.90
21090;DHT22;10703;51.020;6.128;2023-04-24T07:13:43;7.60;99.90
21090;DHT22;10703;51.020;6.128;2023-04-24T07:16:10;7.60;99.90
21090;DHT22;10703;51.020;6.128;2023-04-24T07:18:38;7.50;99.90
21090;DHT22;10703;51.020;6.128;2023-04-24T07:21:06;7.50;99.90
21090;DHT22;10703;51.020;6.128;2023-04-24T07:23:33;7.40;99.90
21090;DHT22;10703;51.020;6.128;2023-04-24T07:25:59;7.40;99.90
21090;DHT22;10703;51.020;6.128;2023-04-24T07:28:26;7.40;99.90
21090;DHT22;10703;51.020;6.128;2023-04-24T07:30:53;7.30;99.90
21090;DHT22;10703;51.020;6.128;2023-04-24T07:33:20;7.30;99.90
21090;DHT22;10703;51.020;6.128;2023-04-24T07:35:47;7.30;99.90
21090;DHT22;10703;51.020;6.128;2023-04-24T07:38:14;7.20;99.90
21090;DHT22;10703;51.020;6.128;2023-04-24T07:40:40;7.10;99.90
21090;DHT22;10703;51.020;6.128;2023-04-24T07:43:07;7.00;99.90
21090;DHT22;10703;51.020;6.128;2023-04-24T07:45:34;6.90;99.90
21090;DHT22;10703;51.020;6.128;2023-04-24T07:48:03;6.90;99.90
21090;DHT22;10703;51.020;6.128;2023-04-24T07:50:30;6.90;99.90
21090;DHT22;10703;51.020;6.128;2023-04-24T07:52:57;6.90;99.90
21090;DHT22;10703;51.020;6.128;2023-04-24T07:55:23;7.00;99.90
21090;DHT22;10703;51.020;6.128;2023-04-24T07:57:53;7.00;99.90
21090;DHT22;10703;51.020;6.128;2023-04-24T08:00:20;7.00;99.90
21090;DHT22;10703;51.020;6.128;2023-04-24T08:02:47;7.00;99.90
21090;DHT22;10703;51.020;6.128;2023-04-24T08:05:14;7.00;99.90
21090;DHT22;10703;51.020;6.128;2023-04-24T08:07:41;7.00;99.90
21090;DHT22;10703;51.020;6.128;2023-04-24T08:10:10;7.10;99.90
21090;DHT22;10703;51.020;6.128;2023-04-24T08:12:37;7.10;99.90
21090;DHT22;10703;51.020;6.128;2023-04-24T08:15:05;7.10;99.90
21090;DHT22;10703;51.020;6.128;2023-04-24T08:17:32;7.10;99.90
21090;DHT22;10703;51.020;6.128;2023-04-24T08:19:58;7.20;99.90
21090;DHT22;10703;51.020;6.128;2023-04-24T08:22:28;7.20;99.90
21090;DHT22;10703;51.020;6.128;2023-04-24T08:24:54;7.30;99.90
21090;DHT22;10703;51.020;6.128;2023-04-24T08:27:23;7.30;99.90
21090;DHT22;10703;51.020;6.128;2023-04-24T08:29:49;7.30;99.90
21090;DHT22;10703;51.020;6.128;2023-04-24T08:32:16;7.40;99.90
21090;DHT22;10703;51.020;6.128;2023-04-24T08:34:43;7.40;99.90
21090;DHT22;10703;51.020;6.128;2023-04-24T08:37:10;7.40;99.90
21090;DHT22;10703;51.020;6.128;2023-04-24T08:39:37;7.40;99.90
21090;DHT22;10703;51.020;6.128;2023-04-24T08:42:05;7.40;99.90
21090;DHT22;10703;51.020;6.128;2023-04-24T08:44:35;7.50;99.90
21090;DHT22;10703;51.020;6.128;2023-04-24T08:47:03;7.60;99.90
21090;DHT22;10703;51.020;6.128;2023-04-24T08:49:29;7.60;99.90
21090;DHT22;10703;51.020;6.128;2023-04-24T08:51:57;7.60;99.90
21090;DHT22;10703;51.020;6.128;2023-04-24T08:54:25;7.70;99.90
21090;DHT22;10703;51.020;6.128;2023-04-24T08:56:53;7.70;99.90
21090;DHT22;10703;51.020;6.128;2023-04-24T08:59:21;7.80;99.90
21090;DHT22;10703;51.020;6.128;2023-04-24T09:01:48;7.80;99.90
21090;DHT22;10703;51.020;6.128;2023-04-24T09:04:17;7.90;99.90
21090;DHT22;10703;51.020;6.128;2023-04-24T09:06:48;7.90;99.90
21090;DHT22;10703;51.020;6.128;2023-04-24T09:09:16;8.00;99.90
21090;DHT22;10703;51.020;6.128;2023-04-24T09:11:43;8.10;99.90
21090;DHT22;10703;51.020;6.128;2023-04-24T09:14:10;8.20;99.90
21090;DHT22;10703;51.020;6.128;2023-04-24T09:16:37;8.20;99.90
21090;DHT22;10703;51.020;6.128;2023-04-24T09:19:03;8.40;99.90
21090;DHT22;10703;51.020;6.128;2023-04-24T09:21:34;8.40;99.90
21090;DHT22;10703;51.020;6.128;2023-04-24T09:24:03;8.50;99.90
21090;DHT22;10703;51.020;6.128;2023-04-24T09:26:31;8.50;99.90
21090;DHT22;10703;51.020;6.128;2023-04-24T09:28:59;8.60;99.90
21090;DHT22;10703;51.020;6.128;2023-04-24T09:31:27;8.60;99.90
21090;DHT22;10703;51.020;6.128;2023-04-24T09:34:02;8.60;99.90
21090;DHT22;10703;51.020;6.128;2023-04-24T09:36:36;8.60;99.90
21090;DHT22;10703;51.020;6.128;2023-04-24T09:39:09;8.70;99.90
21090;DHT22;10703;51.020;6.128;2023-04-24T09:41:51;8.70;99.90
21090;DHT22;10703;51.020;6.128;2023-04-24T09:44:20;8.70;99.90
21090;DHT22;10703;51.020;6.128;2023-04-24T09:46:58;8.80;99.90
21090;DHT22;10703;51.020;6.128;2023-04-24T09:49:26;9.00;99.90
21090;DHT22;10703;51.020;6.128;2023-04-24T09:54:30;9.30;99.90
21090;DHT22;10703;51.020;6.128;2023-04-24T09:56:57;9.50;99.90
21090;DHT22;10703;51.020;6.128;2023-04-24T09:59:23;9.70;99.90
21090;DHT22;10703;51.020;6.128;2023-04-24T10:01:50;10.10;99.90
21090;DHT22;10703;51.020;6.128;2023-04-24T10:04:21;10.30;99.90
21090;DHT22;10703;51.020;6.128;2023-04-24T10:06:50;10.30;99.90
21090;DHT22;10703;51.020;6.128;2023-04-24T10:09:19;10.40;99.90
21090;DHT22;10703;51.020;6.128;2023-04-24T10:11:48;10.50;99.90
21090;DHT22;10703;51.020;6.128;2023-04-24T10:14:17;10.70;99.90
21090;DHT22;10703;51.020;6.128;2023-04-24T10:16:44;10.60;99.90
21090;DHT22;10703;51.020;6.128;2023-04-24T10:19:14;10.60;99.90
21090;DHT22;10703;51.020;6.128;2023-04-24T10:21:43;10.80;99.90
21090;DHT22;10703;51.020;6.128;2023-04-24T10:24:17;11.00;99.90
21090;DHT22;10703;51.020;6.128;2023-04-24T10:26:46;11.10;99.90
21090;DHT22;10703;51.020;6.128;2023-04-24T10:29:18;11.30;99.90
21090;DHT22;10703;51.020;6.128;2023-04-24T10:31:45;11.80;99.90
21090;DHT22;10703;51.020;6.128;2023-04-24T10:34:15;11.80;99.90
21090;DHT22;10703;51.020;6.128;2023-04-24T10:36:46;12.00;99.90
21090;DHT22;10703;51.020;6.128;2023-04-24T10:39:14;12.10;99.90
21090;DHT22;10703;51.020;6.128;2023-04-24T10:41:42;11.70;99.90
21090;DHT22;10703;51.020;6.128;2023-04-24T10:44:10;11.50;99.90
21090;DHT22;10703;51.020;6.128;2023-04-24T10:46:37;11.20;99.90
21090;DHT22;10703;51.020;6.128;2023-04-24T10:49:07;10.90;99.90
21090;DHT22;10703;51.020;6.128;2023-04-24T10:51:51;10.40;99.90
21090;DHT22;10703;51.020;6.128;2023-04-24T10:54:29;10.70;99.90
21090;DHT22;10703;51.020;6.128;2023-04-24T10:59:46;10.70;99.90
21090;DHT22;10703;51.020;6.128;2023-04-24T11:02:17;10.80;99.90
21090;DHT22;10703;51.020;6.128;2023-04-24T11:04:44;10.90;99.90
21090;DHT22;10703;51.020;6.128;2023-04-24T11:07:12;11.00;99.90
21090;DHT22;10703;51.020;6.128;2023-04-24T11:09:41;11.30;99.90
21090;DHT22;10703;51.020;6.128;2023-04-24T11:12:10;11.50;99.90
21090;DHT22;10703;51.020;6.128;2023-04-24T11:20:08;12.70;99.90
21090;DHT22;10703;51.020;6.128;2023-04-24T11:22:54;12.60;99.90
21090;DHT22;10703;51.020;6.128;2023-04-24T11:25:22;12.30;99.90
21090;DHT22;10703;51.020;6.128;2023-04-24T11:27:49;12.00;99.90
21090;DHT22;10703;51.020;6.128;2023-04-24T11:30:20;11.90;99.90
21090;DHT22;10703;51.020;6.128;2023-04-24T11:32:53;12.00;99.90
21090;DHT22;10703;51.020;6.128;2023-04-24T11:35:22;12.20;99.90
21090;DHT22;10703;51.020;6.128;2023-04-24T11:37:53;12.50;99.90
21090;DHT22;10703;51.020;6.128;2023-04-24T11:40:23;12.50;99.90
21090;DHT22;10703;51.020;6.128;2023-04-24T11:42:52;12.60;99.90
21090;DHT22;10703;51.020;6.128;2023-04-24T11:45:24;12.90;99.90
21090;DHT22;10703;51.020;6.128;2023-04-24T11:47:51;12.50;99.90
21090;DHT22;10703;51.020;6.128;2023-04-24T11:50:20;12.30;99.90
21090;DHT22;10703;51.020;6.128;2023-04-24T11:52:49;11.90;99.90
21090;DHT22;10703;51.020;6.128;2023-04-24T11:57:43;11.40;99.90
21090;DHT22;10703;51.020;6.128;2023-04-24T12:00:22;11.70;99.90
21090;DHT22;10703;51.020;6.128;2023-04-24T12:02:49;11.80;99.90
21090;DHT22;10703;51.020;6.128;2023-04-24T12:05:20;11.90;99.90
21090;DHT22;10703;51.020;6.128;2023-04-24T12:07:48;11.90;99.90
21090;DHT22;10703;51.020;6.128;2023-04-24T12:10:23;12.10;99.90
21090;DHT22;10703;51.020;6.128;2023-04-24T12:12:50;12.10;99.90
21090;DHT22;10703;51.020;6.128;2023-04-24T12:15:19;11.80;99.90
21090;DHT22;10703;51.020;6.128;2023-04-24T12:17:46;11.70;99.90
21090;DHT22;10703;51.020;6.128;2023-04-24T12:20:14;11.50;99.90
21090;DHT22;10703;51.020;6.128;2023-04-24T12:22:47;11.80;99.90
21090;DHT22;10703;51.020;6.128;2023-04-24T12:25:16;11.80;99.90
21090;DHT22;10703;51.020;6.128;2023-04-24T12:27:47;11.70;99.90
21090;DHT22;10703;51.020;6.128;2023-04-24T12:30:18;11.50;99.90
21090;DHT22;10703;51.020;6.128;2023-04-24T12:32:49;11.70;99.90
21090;DHT22;10703;51.020;6.128;2023-04-24T12:35:21;12.60;99.90
21090;DHT22;10703;51.020;6.128;2023-04-24T12:37:48;13.90;99.90
21090;DHT22;10703;51.020;6.128;2023-04-24T12:40:17;14.10;99.90
21090;DHT22;10703;51.020;6.128;2023-04-24T12:42:51;13.20;99.90
21090;DHT22;10703;51.020;6.128;2023-04-24T12:45:18;12.60;99.90
21090;DHT22;10703;51.020;6.128;2023-04-24T12:47:46;12.10;99.90
21090;DHT22;10703;51.020;6.128;2023-04-24T12:50:14;11.80;99.90
21090;DHT22;10703;51.020;6.128;2023-04-24T12:52:42;11.40;99.90
21090;DHT22;10703;51.020;6.128;2023-04-24T12:55:09;11.20;99.90
21090;DHT22;10703;51.020;6.128;2023-04-24T12:57:37;11.00;99.90
21090;DHT22;10703;51.020;6.128;2023-04-24T13:00:06;10.90;99.90
21090;DHT22;10703;51.020;6.128;2023-04-24T13:02:33;10.70;99.90
21090;DHT22;10703;51.020;6.128;2023-04-24T13:05:01;10.90;99.90
21090;DHT22;10703;51.020;6.128;2023-04-24T13:07:27;11.00;99.90
21090;DHT22;10703;51.020;6.128;2023-04-24T13:09:55;11.20;99.90
21090;DHT22;10703;51.020;6.128;2023-04-24T13:12:22;11.60;99.90
21090;DHT22;10703;51.020;6.128;2023-04-24T13:14:50;11.80;99.90
21090;DHT22;10703;51.020;6.128;2023-04-24T13:17:16;12.10;99.90
21090;DHT22;10703;51.020;6.128;2023-04-24T13:19:44;12.20;99.90
21090;DHT22;10703;51.020;6.128;2023-04-24T13:22:12;12.00;99.90
21090;DHT22;10703;51.020;6.128;2023-04-24T13:24:39;12.00;99.90
21090;DHT22;10703;51.020;6.128;2023-04-24T13:27:08;12.30;99.90
21090;DHT22;10703;51.020;6.128;2023-04-24T13:29:35;13.00;99.90
21090;DHT22;10703;51.020;6.128;2023-04-24T13:32:01;12.90;99.90
21090;DHT22;10703;51.020;6.128;2023-04-24T13:34:28;12.60;99.90
21090;DHT22;10703;51.020;6.128;2023-04-24T13:36:57;12.30;99.90
21090;DHT22;10703;51.020;6.128;2023-04-24T13:39:24;12.30;99.90
21090;DHT22;10703;51.020;6.128;2023-04-24T13:41:53;12.60;99.90
21090;DHT22;10703;51.020;6.128;2023-04-24T13:44:20;13.00;99.90
21090;DHT22;10703;51.020;6.128;2023-04-24T13:46:49;13.00;99.90
21090;DHT22;10703;51.020;6.128;2023-04-24T13:49:16;12.80;99.90
21090;DHT22;10703;51.020;6.128;2023-04-24T13:51:43;12.80;99.90
21090;DHT22;10703;51.020;6.128;2023-04-24T13:54:10;12.80;99.90
21090;DHT22;10703;51.020;6.128;2023-04-24T13:56:39;12.60;99.90
21090;DHT22;10703;51.020;6.128;2023-04-24T13:59:05;12.70;99.90
21090;DHT22;10703;51.020;6.128;2023-04-24T14:01:32;12.60;99.90
21090;DHT22;10703;51.020;6.128;2023-04-24T14:03:59;12.60;99.90
21090;DHT22;10703;51.020;6.128;2023-04-24T14:06:26;13.10;99.90
21090;DHT22;10703;51.020;6.128;2023-04-24T14:08:53;13.80;99.90
21090;DHT22;10703;51.020;6.128;2023-04-24T14:11:20;14.40;99.90
21090;DHT22;10703;51.020;6.128;2023-04-24T14:13:48;14.70;99.90
21090;DHT22;10703;51.020;6.128;2023-04-24T14:16:15;14.70;99.90
21090;DHT22;10703;51.020;6.128;2023-04-24T14:18:41;14.90;99.90
21090;DHT22;10703;51.020;6.128;2023-04-24T14:21:08;15.00;99.90
21090;DHT22;10703;51.020;6.128;2023-04-24T14:23:34;15.50;99.90
21090;DHT22;10703;51.020;6.128;2023-04-24T14:26:01;15.90;99.90
21090;DHT22;10703;51.020;6.128;2023-04-24T14:28:28;15.50;99.90
21090;DHT22;10703;51.020;6.128;2023-04-24T14:30:54;15.10;99.90
21090;DHT22;10703;51.020;6.128;2023-04-24T14:33:21;15.20;99.90
21090;DHT22;10703;51.020;6.128;2023-04-24T14:35:48;15.30;99.90
21090;DHT22;10703;51.020;6.128;2023-04-24T14:38:14;15.90;99.90
21090;DHT22;10703;51.020;6.128;2023-04-24T14:40:41;16.30;99.90
21090;DHT22;10703;51.020;6.128;2023-04-24T14:43:28;16.60;99.90
21090;DHT22;10703;51.020;6.128;2023-04-24T14:45:55;17.30;99.90
21090;DHT22;10703;51.020;6.128;2023-04-24T14:48:21;17.10;99.70
21090;DHT22;10703;51.020;6.128;2023-04-24T14:50:48;16.50;99.90
21090;DHT22;10703;51.020;6.128;2023-04-24T14:53:14;15.70;99.90
21090;DHT22;10703;51.020;6.128;2023-04-24T14:55:41;15.10;99.90
21090;DHT22;10703;51.020;6.128;2023-04-24T14:58:07;14.80;99.90
21090;DHT22;10703;51.020;6.128;2023-04-24T15:00:34;15.10;99.90
21090;DHT22;10703;51.020;6.128;2023-04-24T15:03:01;15.30;99.90
21090;DHT22;10703;51.020;6.128;2023-04-24T15:05:28;14.80;99.90
21090;DHT22;10703;51.020;6.128;2023-04-24T15:07:55;14.20;99.90
21090;DHT22;10703;51.020;6.128;2023-04-24T15:10:22;14.10;99.90
21090;DHT22;10703;51.020;6.128;2023-04-24T15:12:50;14.40;99.90
21090;DHT22;10703;51.020;6.128;2023-04-24T15:15:16;14.40;99.90
21090;DHT22;10703;51.020;6.128;2023-04-24T15:17:43;14.60;99.90
21090;DHT22;10703;51.020;6.128;2023-04-24T15:20:10;14.40;99.90
21090;DHT22;10703;51.020;6.128;2023-04-24T15:22:36;14.50;99.90
21090;DHT22;10703;51.020;6.128;2023-04-24T15:25:03;14.30;99.90
21090;DHT22;10703;51.020;6.128;2023-04-24T15:27:42;14.60;99.90
21090;DHT22;10703;51.020;6.128;2023-04-24T15:30:09;14.30;99.90
21090;DHT22;10703;51.020;6.128;2023-04-24T15:32:37;14.70;99.90
21090;DHT22;10703;51.020;6.128;2023-04-24T15:35:04;14.60;99.90
21090;DHT22;10703;51.020;6.128;2023-04-24T15:37:35;14.00;99.90
21090;DHT22;10703;51.020;6.128;2023-04-24T15:40:02;14.10;99.90
21090;DHT22;10703;51.020;6.128;2023-04-24T15:42:32;14.10;99.90
21090;DHT22;10703;51.020;6.128;2023-04-24T15:44:58;13.80;99.90
21090;DHT22;10703;51.020;6.128;2023-04-24T15:47:25;14.40;99.90
21090;DHT22;10703;51.020;6.128;2023-04-24T15:49:52;14.70;99.90
21090;DHT22;10703;51.020;6.128;2023-04-24T15:52:19;15.60;99.90
21090;DHT22;10703;51.020;6.128;2023-04-24T15:54:46;15.90;99.90
21090;DHT22;10703;51.020;6.128;2023-04-24T15:57:13;15.90;99.90